createdAt,value
2018-07-24T00:00:28.522Z,2.25
2018-07-24T00:03:02.575Z,0.95
2018-07-24T00:05:33.934Z,0.88
2018-07-24T00:08:08.231Z,0.95
2018-07-24T00:10:40.345Z,0.70
2018-07-24T00:13:09.014Z,0.98
2018-07-24T00:15:37.903Z,0.75
2018-07-24T00:18:10.003Z,0.40
2018-07-24T00:20:55.898Z,1.10
2018-07-24T00:26:19.887Z,1.52
2018-07-24T00:28:51.742Z,0.62
2018-07-24T00:31:25.011Z,1.87
2018-07-24T00:36:39.488Z,0.50
2018-07-24T00:39:13.417Z,1.27
2018-07-24T00:41:42.741Z,1.25
2018-07-24T00:44:20.831Z,1.62
2018-07-24T00:46:58.632Z,1.87
2018-07-24T00:49:27.870Z,1.55
2018-07-24T00:52:10.560Z,0.93
2018-07-24T00:54:40.055Z,1.25
2018-07-24T00:57:09.869Z,1.62
2018-07-24T00:59:48.070Z,1.20
2018-07-24T01:02:29.102Z,3.10
2018-07-24T01:05:00.977Z,1.25
2018-07-24T01:07:33.894Z,1.10
2018-07-24T01:10:03.612Z,2.02
2018-07-24T01:12:47.391Z,2.65
2018-07-24T01:15:27.974Z,1.52
2018-07-24T01:18:13.059Z,1.50
2018-07-24T01:20:59.858Z,1.40
2018-07-24T01:23:31.163Z,0.78
2018-07-24T01:26:17.873Z,1.30
2018-07-24T01:28:49.647Z,1.85
2018-07-24T01:31:23.913Z,1.22
2018-07-24T01:33:58.602Z,1.55
2018-07-24T01:36:27.757Z,2.05
2018-07-24T01:38:56.407Z,1.77
2018-07-24T01:44:23.262Z,1.90
2018-07-24T01:46:51.778Z,2.40
2018-07-24T01:49:23.339Z,1.22
2018-07-24T01:51:52.126Z,2.58
2018-07-24T01:54:23.873Z,2.33
2018-07-24T01:56:58.370Z,1.65
2018-07-24T01:59:27.503Z,2.20
2018-07-24T02:01:56.095Z,1.32
2018-07-24T02:04:25.899Z,1.50
2018-07-24T02:07:00.000Z,1.72
2018-07-24T02:09:33.710Z,2.22
2018-07-24T02:12:16.683Z,2.27
2018-07-24T02:14:45.628Z,2.25
2018-07-24T02:17:19.898Z,1.80
2018-07-24T02:19:54.557Z,1.27
2018-07-24T02:22:26.802Z,1.55
2018-07-24T02:25:03.214Z,2.08
2018-07-24T02:27:32.400Z,1.07
2018-07-24T02:30:02.109Z,2.10
2018-07-24T02:32:34.081Z,1.35
2018-07-24T02:35:08.173Z,2.42
2018-07-24T02:41:53.491Z,1.22
2018-07-24T02:44:22.804Z,0.88
2018-07-24T02:46:51.497Z,1.47
2018-07-24T02:49:20.280Z,0.98
2018-07-24T02:51:54.403Z,1.17
2018-07-24T02:54:23.554Z,2.20
2018-07-24T02:56:55.192Z,1.12
2018-07-24T02:59:33.611Z,2.27
2018-07-24T03:03:28.201Z,1.67
2018-07-24T03:06:03.005Z,1.25
2018-07-24T03:08:32.251Z,1.70
2018-07-24T03:11:01.175Z,1.57
2018-07-24T03:13:29.697Z,2.45
2018-07-24T03:16:07.800Z,2.00
2018-07-24T03:18:39.454Z,1.07
2018-07-24T03:21:15.560Z,1.32
2018-07-24T03:23:44.885Z,1.22
2018-07-24T03:26:14.303Z,2.15
2018-07-24T03:28:55.160Z,1.62
2018-07-24T03:31:24.673Z,2.40
2018-07-24T03:33:54.263Z,2.00
2018-07-24T03:36:23.003Z,1.50
2018-07-24T03:38:51.633Z,2.37
2018-07-24T03:41:20.433Z,2.20
2018-07-24T03:43:50.134Z,3.00
2018-07-24T03:46:18.982Z,2.52
2018-07-24T03:48:55.155Z,1.77
2018-07-24T03:51:24.197Z,2.22
2018-07-24T03:53:53.904Z,0.93
2018-07-24T03:56:32.190Z,1.57
2018-07-24T03:59:04.347Z,2.12
2018-07-24T04:01:38.643Z,2.37
2018-07-24T04:04:07.847Z,2.62
2018-07-24T04:06:46.106Z,3.08
2018-07-24T04:09:22.859Z,2.65
2018-07-24T04:12:10.292Z,1.95
2018-07-24T04:14:44.452Z,2.10
2018-07-24T04:17:13.726Z,2.02
2018-07-24T04:19:51.958Z,1.30
2018-07-24T04:22:24.348Z,2.52
2018-07-24T04:24:56.101Z,1.15
2018-07-24T04:27:27.560Z,3.00
2018-07-24T04:30:02.682Z,2.37
2018-07-24T04:32:47.845Z,2.27
2018-07-24T04:35:21.823Z,2.15
2018-07-24T04:37:51.059Z,2.87
2018-07-24T04:40:25.534Z,3.25
2018-07-24T04:42:57.616Z,2.22
2018-07-24T04:45:40.176Z,1.77
2018-07-24T04:48:14.470Z,2.58
2018-07-24T04:50:43.547Z,1.95
2018-07-24T04:53:17.798Z,3.85
2018-07-24T04:55:46.984Z,3.05
2018-07-24T04:58:15.732Z,2.08
2018-07-24T05:00:56.680Z,1.98
2018-07-24T05:03:26.023Z,2.52
2018-07-24T05:06:00.331Z,3.02
2018-07-24T05:11:25.683Z,4.22
2018-07-24T05:16:45.390Z,2.72
2018-07-24T05:19:16.996Z,3.45
2018-07-24T05:21:45.848Z,2.98
2018-07-24T05:24:17.553Z,2.40
2018-07-24T05:26:49.232Z,2.08
2018-07-24T05:29:27.456Z,3.40
2018-07-24T05:32:01.986Z,2.87
2018-07-24T05:34:31.379Z,2.85
2018-07-24T05:37:00.801Z,2.33
2018-07-24T05:39:29.790Z,2.15
2018-07-24T05:41:58.323Z,1.87
2018-07-24T05:44:27.441Z,3.15
2018-07-24T05:46:55.932Z,2.37
2018-07-24T05:49:27.841Z,2.27
2018-07-24T05:51:56.574Z,1.42
2018-07-24T05:54:25.325Z,2.35
2018-07-24T05:56:57.124Z,3.02
2018-07-24T05:59:25.932Z,2.10
2018-07-24T06:01:54.721Z,2.27
2018-07-24T06:04:24.542Z,3.20
2018-07-24T06:06:53.272Z,2.60
2018-07-24T06:09:22.908Z,1.50
2018-07-24T06:11:54.635Z,2.27
2018-07-24T06:14:24.246Z,2.45
2018-07-24T06:16:52.936Z,2.08
2018-07-24T06:19:21.520Z,2.60
2018-07-24T06:21:51.476Z,2.17
2018-07-24T06:24:20.021Z,2.20
2018-07-24T06:26:48.989Z,2.70
2018-07-24T06:29:17.773Z,2.50
2018-07-24T06:31:49.325Z,2.55
2018-07-24T06:34:18.029Z,3.25
2018-07-24T06:36:46.640Z,2.72
2018-07-24T06:39:15.334Z,2.65
2018-07-24T06:41:45.164Z,2.67
2018-07-24T06:44:13.781Z,2.37
2018-07-24T06:46:42.313Z,1.60
2018-07-24T06:49:13.997Z,2.95
2018-07-24T06:51:43.074Z,2.25
2018-07-24T06:54:17.043Z,2.22
2018-07-24T06:56:52.922Z,3.55
2018-07-24T06:59:21.985Z,1.82
2018-07-24T07:01:50.782Z,2.67
2018-07-24T07:04:25.140Z,1.55
2018-07-24T07:06:54.400Z,2.25
2018-07-24T07:09:22.726Z,2.47
2018-07-24T07:11:54.539Z,2.60
2018-07-24T07:14:26.275Z,2.40
2018-07-24T07:16:56.048Z,1.95
2018-07-24T07:19:24.645Z,1.77
2018-07-24T07:21:58.920Z,1.72
2018-07-24T07:24:28.166Z,0.82
2018-07-24T07:26:57.985Z,2.47
2018-07-24T07:29:27.756Z,1.15
2018-07-24T07:32:02.874Z,1.35
2018-07-24T07:34:31.908Z,1.72
2018-07-24T07:37:06.391Z,1.55
2018-07-24T07:39:45.259Z,1.65
2018-07-24T07:42:14.252Z,1.77
2018-07-24T07:44:45.826Z,1.67
2018-07-24T07:47:20.346Z,2.90
2018-07-24T07:49:50.241Z,1.25
2018-07-24T07:52:24.622Z,2.00
2018-07-24T07:54:53.832Z,1.92
2018-07-24T07:57:22.491Z,1.40
2018-07-24T07:59:54.262Z,1.60
2018-07-24T08:02:22.882Z,1.82
2018-07-24T08:04:51.505Z,1.42
2018-07-24T08:07:21.256Z,2.08
2018-07-24T08:09:49.902Z,1.05
2018-07-24T08:12:18.514Z,1.85
2018-07-24T08:14:50.137Z,1.02
2018-07-24T08:17:18.720Z,1.02
2018-07-24T08:19:52.936Z,0.80
2018-07-24T08:22:22.050Z,1.12
2018-07-24T08:24:56.244Z,1.20
2018-07-24T08:27:26.522Z,1.00
2018-07-24T08:29:56.044Z,2.05
2018-07-24T08:32:24.878Z,1.45
2018-07-24T08:34:56.409Z,1.30
2018-07-24T08:37:25.709Z,1.30
2018-07-24T08:39:57.162Z,1.07
2018-07-24T08:42:25.563Z,0.88
2018-07-24T08:44:55.225Z,1.00
2018-07-24T08:47:28.252Z,1.17
2018-07-24T08:50:02.056Z,0.85
2018-07-24T08:52:31.472Z,0.93
2018-07-24T08:55:01.110Z,1.40
2018-07-24T08:57:29.626Z,0.55
2018-07-24T08:59:58.233Z,1.05
2018-07-24T09:02:27.921Z,1.37
2018-07-24T09:04:56.561Z,1.27
2018-07-24T09:07:25.316Z,1.72
2018-07-24T09:09:53.969Z,1.50
2018-07-24T09:12:22.776Z,0.85
2018-07-24T09:14:51.396Z,0.62
2018-07-24T09:17:23.113Z,0.37
2018-07-24T09:19:52.018Z,0.85
2018-07-24T09:22:20.471Z,1.55
2018-07-24T09:24:49.005Z,0.65
2018-07-24T09:27:17.868Z,1.50
2018-07-24T09:29:52.092Z,1.20
2018-07-24T09:32:21.366Z,0.95
2018-07-24T09:34:49.881Z,0.20
2018-07-24T09:37:18.770Z,0.93
2018-07-24T09:39:47.628Z,0.93
2018-07-24T09:42:16.407Z,0.60
2018-07-24T09:44:44.813Z,0.82
2018-07-24T09:47:13.732Z,0.82
2018-07-24T09:49:42.815Z,1.17
2018-07-24T09:52:11.512Z,0.72
2018-07-24T09:54:40.068Z,0.98
2018-07-24T09:57:14.325Z,0.45
2018-07-24T09:59:43.299Z,0.93
2018-07-24T10:02:12.049Z,0.60
2018-07-24T10:04:40.870Z,0.40
2018-07-24T10:07:09.702Z,1.25
2018-07-24T10:09:41.218Z,0.93
2018-07-24T10:12:10.279Z,1.10
2018-07-24T10:14:39.430Z,0.78
2018-07-24T10:17:09.212Z,1.60
2018-07-24T10:19:39.113Z,1.72
2018-07-24T10:22:08.136Z,0.78
2018-07-24T10:24:36.724Z,1.87
2018-07-24T10:27:05.491Z,1.05
2018-07-24T10:29:35.211Z,1.60
2018-07-24T10:32:03.858Z,1.55
2018-07-24T10:34:32.473Z,0.85
2018-07-24T10:37:01.208Z,1.77
2018-07-24T10:39:31.173Z,1.50
2018-07-24T10:41:59.757Z,0.80
2018-07-24T10:44:29.395Z,1.22
2018-07-24T10:46:58.222Z,1.17
2018-07-24T10:49:27.127Z,1.57
2018-07-24T10:51:55.778Z,0.70
2018-07-24T10:54:24.614Z,1.75
2018-07-24T10:56:53.332Z,0.72
2018-07-24T10:59:25.103Z,1.17
2018-07-24T11:01:53.683Z,1.32
2018-07-24T11:04:22.317Z,0.95
2018-07-24T11:06:54.147Z,0.72
2018-07-24T11:09:30.035Z,1.00
2018-07-24T11:11:59.152Z,0.82
2018-07-24T11:14:27.829Z,1.07
2018-07-24T11:16:57.021Z,0.45
2018-07-24T11:19:26.405Z,0.60
2018-07-24T11:21:58.105Z,0.75
2018-07-24T11:24:27.160Z,0.88
2018-07-24T11:26:55.572Z,1.32
2018-07-24T11:29:24.818Z,0.65
2018-07-24T11:31:54.124Z,0.70
2018-07-24T11:34:22.687Z,0.23
2018-07-24T11:36:51.491Z,0.37
2018-07-24T11:39:23.666Z,0.72
2018-07-24T11:41:58.451Z,0.60
2018-07-24T11:44:27.655Z,0.53
2018-07-24T11:47:01.756Z,0.60
2018-07-24T11:49:30.896Z,0.50
2018-07-24T11:51:59.693Z,0.75
2018-07-24T11:54:29.204Z,0.68
2018-07-24T11:56:57.910Z,1.17
2018-07-24T11:59:26.672Z,0.75
2018-07-24T12:01:55.712Z,0.60
2018-07-24T12:04:24.487Z,1.10
2018-07-24T12:06:53.400Z,0.50
2018-07-24T12:09:22.760Z,0.72
2018-07-24T12:11:52.582Z,0.50
2018-07-24T12:14:21.453Z,0.20
2018-07-24T12:16:49.861Z,1.15
2018-07-24T12:19:18.856Z,1.05
2018-07-24T12:21:47.548Z,0.20
2018-07-24T12:24:16.243Z,0.47
2018-07-24T12:26:45.864Z,0.42
2018-07-24T12:29:14.602Z,0.10
2018-07-24T12:31:43.266Z,0.68
2018-07-24T12:34:11.881Z,0.60
2018-07-24T12:36:43.657Z,0.30
2018-07-24T12:39:12.615Z,0.40
2018-07-24T12:41:41.272Z,0.90
2018-07-24T12:44:10.013Z,0.57
2018-07-24T12:46:40.861Z,1.07
2018-07-24T12:49:10.343Z,0.82
2018-07-24T12:51:39.578Z,0.33
2018-07-24T12:54:08.855Z,0.30
2018-07-24T12:56:37.680Z,0.53
2018-07-24T12:59:06.265Z,0.78
2018-07-24T13:01:35.203Z,0.30
2018-07-24T13:04:03.948Z,0.10
2018-07-24T13:06:32.480Z,0.45
2018-07-24T13:09:01.405Z,1.02
2018-07-24T13:11:30.091Z,1.30
2018-07-24T13:13:59.488Z,0.40
2018-07-24T13:16:28.777Z,0.50
2018-07-24T13:18:57.454Z,0.72
2018-07-24T13:21:26.087Z,0.88
2018-07-24T13:23:54.822Z,0.30
2018-07-24T13:26:23.647Z,0.62
2018-07-24T13:28:52.587Z,2.15
2018-07-24T13:31:21.200Z,0.80
2018-07-24T13:33:50.009Z,0.53
2018-07-24T13:36:22.903Z,0.40
2018-07-24T13:38:52.401Z,0.50
2018-07-24T13:41:21.206Z,0.68
2018-07-24T13:43:49.814Z,0.53
2018-07-24T13:46:18.474Z,0.55
2018-07-24T13:48:47.286Z,0.70
2018-07-24T13:51:16.052Z,0.40
2018-07-24T13:53:44.846Z,0.93
2018-07-24T13:56:16.544Z,0.25
2018-07-24T13:58:46.178Z,0.35
2018-07-24T14:01:14.895Z,0.65
2018-07-24T14:03:43.560Z,0.53
2018-07-24T14:06:12.337Z,0.10
2018-07-24T14:08:41.048Z,0.50
2018-07-24T14:11:19.168Z,1.15
2018-07-24T14:13:49.465Z,0.60
2018-07-24T14:16:21.677Z,0.23
2018-07-24T14:18:57.331Z,0.70
2018-07-24T14:21:26.563Z,0.62
2018-07-24T14:23:56.354Z,0.88
2018-07-24T14:26:25.193Z,0.17
2018-07-24T14:28:53.878Z,0.45
2018-07-24T14:31:22.622Z,0.68
2018-07-24T14:33:58.812Z,0.20
2018-07-24T14:36:27.960Z,0.20
2018-07-24T14:38:56.923Z,0.08
2018-07-24T14:41:28.425Z,0.10
2018-07-24T14:44:00.105Z,0.20
2018-07-24T14:46:32.145Z,0.35
2018-07-24T14:49:03.664Z,0.65
2018-07-24T14:51:32.219Z,0.82
2018-07-24T14:54:01.910Z,0.20
2018-07-24T14:56:30.585Z,0.78
2018-07-24T14:59:00.390Z,0.40
2018-07-24T15:01:34.448Z,0.03
2018-07-24T15:04:03.540Z,0.30
2018-07-24T15:06:35.340Z,0.42
2018-07-24T15:09:07.717Z,1.02
2018-07-24T15:11:37.900Z,0.20
2018-07-24T15:14:06.485Z,1.02
2018-07-24T15:16:38.130Z,0.20
2018-07-24T15:19:09.863Z,0.10
2018-07-24T15:21:38.638Z,0.60
2018-07-24T15:24:07.320Z,0.53
2018-07-24T15:26:36.305Z,0.03
2018-07-24T15:29:10.644Z,0.33
2018-07-24T15:31:40.189Z,0.78
2018-07-24T15:34:09.499Z,0.15
2018-07-24T15:36:43.448Z,0.50
2018-07-24T15:39:13.696Z,0.45
2018-07-24T15:41:48.344Z,0.72
2018-07-24T15:44:19.676Z,0.30
2018-07-24T15:46:53.808Z,0.10
2018-07-24T15:49:33.849Z,0.37
2018-07-24T15:52:05.635Z,0.15
2018-07-24T15:54:34.237Z,0.45
2018-07-24T15:57:02.802Z,0.10
2018-07-24T15:59:37.036Z,0.20
2018-07-24T16:02:06.201Z,0.42
2018-07-24T16:04:34.774Z,0.30
2018-07-24T16:07:03.661Z,0.10
2018-07-24T16:09:32.121Z,0.33
2018-07-24T16:12:07.070Z,0.20
2018-07-24T16:14:36.868Z,0.55
2018-07-24T16:17:07.001Z,0.65
2018-07-24T16:19:36.446Z,0.60
2018-07-24T16:22:08.234Z,0.30
2018-07-24T16:24:42.338Z,0.40
2018-07-24T16:27:11.545Z,0.35
2018-07-24T16:29:43.362Z,0.75
2018-07-24T16:32:15.016Z,0.60
2018-07-24T16:34:43.624Z,0.08
2018-07-24T16:37:15.260Z,0.85
2018-07-24T16:39:44.103Z,0.15
2018-07-24T16:42:15.463Z,0.00
2018-07-24T16:44:46.860Z,0.68
2018-07-24T16:47:18.588Z,0.53
2018-07-24T16:49:47.199Z,0.30
2018-07-24T16:52:16.376Z,0.10
2018-07-24T16:54:46.436Z,0.33
2018-07-24T16:57:18.496Z,0.50
2018-07-24T16:59:47.364Z,0.30
2018-07-24T17:02:16.624Z,0.30
2018-07-24T17:04:45.492Z,0.33
2018-07-24T17:07:14.340Z,0.23
2018-07-24T17:09:42.883Z,0.10
2018-07-24T17:12:11.932Z,0.05
2018-07-24T17:14:40.296Z,0.10
2018-07-24T17:17:10.213Z,0.65
2018-07-24T17:19:39.658Z,0.30
2018-07-24T17:22:07.773Z,0.00
2018-07-24T17:24:36.251Z,0.72
2018-07-24T17:27:04.862Z,0.37
2018-07-24T17:29:33.849Z,0.55
2018-07-24T17:32:02.596Z,0.53
2018-07-24T17:34:34.395Z,0.40
2018-07-24T17:37:03.104Z,0.15
2018-07-24T17:39:31.792Z,0.60
2018-07-24T17:42:00.641Z,1.40
2018-07-24T17:44:30.589Z,0.35
2018-07-24T17:46:59.981Z,0.65
2018-07-24T17:49:28.830Z,0.85
2018-07-24T17:51:57.692Z,0.30
2018-07-24T17:54:26.310Z,0.40
2018-07-24T17:56:56.122Z,0.80
2018-07-24T17:59:24.757Z,0.65
2018-07-24T18:01:53.493Z,0.20
2018-07-24T18:04:23.187Z,0.47
2018-07-24T18:06:52.136Z,0.60
2018-07-24T18:09:21.028Z,0.53
2018-07-24T18:11:49.458Z,0.15
2018-07-24T18:14:18.166Z,0.33
2018-07-24T18:16:46.916Z,0.53
2018-07-24T18:19:17.092Z,0.80
2018-07-24T18:21:45.606Z,1.12
2018-07-24T18:24:14.274Z,0.35
2018-07-24T18:26:43.014Z,0.95
2018-07-24T18:29:11.761Z,1.30
2018-07-24T18:31:40.731Z,0.47
2018-07-24T18:34:09.570Z,0.65
2018-07-24T18:36:38.277Z,1.52
2018-07-24T18:39:08.018Z,0.55
2018-07-24T18:41:37.924Z,0.35
2018-07-24T18:44:06.464Z,0.47
2018-07-24T18:46:35.319Z,0.53
2018-07-24T18:49:04.613Z,0.65
2018-07-24T18:51:33.660Z,0.35
2018-07-24T18:54:02.665Z,1.07
2018-07-24T18:56:31.258Z,1.70
2018-07-24T18:58:59.806Z,0.62
2018-07-24T19:01:29.339Z,1.35
2018-07-24T19:03:58.965Z,1.20
2018-07-24T19:06:27.724Z,0.42
2018-07-24T19:08:57.622Z,0.55
2018-07-24T19:11:26.433Z,0.93
2018-07-24T19:13:55.301Z,1.27
2018-07-24T19:16:23.810Z,0.95
2018-07-24T19:18:52.669Z,0.75
2018-07-24T19:21:21.283Z,0.85
2018-07-24T19:23:50.063Z,0.40
2018-07-24T19:26:18.646Z,1.47
2018-07-24T19:28:47.281Z,0.60
2018-07-24T19:31:16.070Z,0.88
2018-07-24T19:33:45.945Z,0.50
2018-07-24T19:36:14.600Z,0.88
2018-07-24T19:38:43.239Z,1.45
2018-07-24T19:41:12.012Z,1.32
2018-07-24T19:43:40.614Z,0.80
2018-07-24T19:46:09.645Z,0.70
2018-07-24T19:48:38.309Z,0.62
2018-07-24T19:51:07.223Z,1.02
2018-07-24T19:53:37.205Z,0.37
2018-07-24T19:56:05.838Z,1.22
2018-07-24T19:58:34.723Z,0.72
2018-07-24T20:01:04.563Z,1.12
2018-07-24T20:03:36.290Z,0.80
2018-07-24T20:06:04.880Z,0.95
2018-07-24T20:08:35.704Z,1.57
2018-07-24T20:11:04.371Z,0.90
2018-07-24T20:13:33.020Z,2.05
2018-07-24T20:16:06.119Z,0.80
2018-07-24T20:18:35.065Z,2.10
2018-07-24T20:21:03.474Z,0.98
2018-07-24T20:23:32.148Z,2.05
2018-07-24T20:26:03.706Z,1.05
2018-07-24T20:28:32.477Z,1.62
2018-07-24T20:31:01.189Z,1.00
2018-07-24T20:33:30.024Z,1.07
2018-07-24T20:35:58.384Z,0.72
2018-07-24T20:38:27.069Z,1.82
2018-07-24T20:40:55.729Z,1.95
2018-07-24T20:43:24.535Z,1.65
2018-07-24T20:45:53.331Z,1.22
2018-07-24T20:48:21.914Z,1.37
2018-07-24T20:50:51.091Z,2.67
2018-07-24T20:53:19.657Z,3.25
2018-07-24T20:55:51.490Z,1.90
2018-07-24T20:58:20.054Z,1.20
2018-07-24T21:00:48.830Z,2.50
2018-07-24T21:03:17.568Z,1.30
2018-07-24T21:05:46.433Z,1.42
2018-07-24T21:08:15.223Z,2.00
2018-07-24T21:10:44.179Z,1.57
2018-07-24T21:13:13.420Z,1.55
2018-07-24T21:15:43.152Z,1.15
2018-07-24T21:18:14.939Z,1.40
2018-07-24T21:20:43.507Z,1.57
2018-07-24T21:23:16.461Z,2.75
2018-07-24T21:25:44.849Z,1.32
2018-07-24T21:28:19.124Z,1.37
2018-07-24T21:30:50.728Z,1.87
2018-07-24T21:33:20.410Z,2.35
2018-07-24T21:35:51.784Z,2.35
2018-07-24T21:38:21.953Z,2.85
2018-07-24T21:40:53.340Z,1.52
2018-07-24T21:43:22.244Z,1.32
2018-07-24T21:45:50.701Z,2.50
2018-07-24T21:48:20.346Z,2.55
2018-07-24T21:50:50.345Z,0.82
2018-07-24T21:53:18.718Z,2.65
2018-07-24T21:55:48.550Z,1.80
2018-07-24T21:58:17.205Z,2.12
2018-07-24T22:00:45.826Z,2.02
2018-07-24T22:03:15.087Z,2.20
2018-07-24T22:05:43.876Z,2.98
2018-07-24T22:08:12.458Z,1.32
2018-07-24T22:10:44.314Z,2.12
2018-07-24T22:13:14.052Z,3.15
2018-07-24T22:15:45.822Z,2.00
2018-07-24T22:18:14.537Z,2.65
2018-07-24T22:20:43.056Z,1.37
2018-07-24T22:23:11.950Z,2.08
2018-07-24T22:25:40.811Z,1.77
2018-07-24T22:28:10.345Z,2.17
2018-07-24T22:30:44.950Z,2.22
2018-07-24T22:33:14.967Z,2.27
2018-07-24T22:35:43.556Z,3.58
2018-07-24T22:38:12.308Z,2.50
2018-07-24T22:40:41.980Z,2.42
2018-07-24T22:43:10.853Z,3.15
2018-07-24T22:45:39.192Z,1.27
2018-07-24T22:48:07.220Z,2.98
2018-07-24T22:50:41.399Z,1.87
2018-07-24T22:53:13.462Z,2.67
2018-07-24T22:55:42.281Z,2.25
2018-07-24T22:58:10.954Z,2.33
2018-07-24T23:00:39.639Z,3.20
2018-07-24T23:03:08.288Z,2.80
2018-07-24T23:05:44.468Z,1.98
2018-07-24T23:08:13.615Z,1.35
2018-07-24T23:10:42.525Z,4.75
2018-07-24T23:13:10.890Z,1.32
2018-07-24T23:17:04.100Z,2.42
2018-07-24T23:19:33.013Z,3.77
2018-07-24T23:22:04.216Z,2.37
2018-07-24T23:24:34.800Z,3.08
2018-07-24T23:27:03.169Z,3.08
2018-07-24T23:29:34.880Z,2.85
2018-07-24T23:32:03.464Z,3.70
2018-07-24T23:34:32.020Z,4.05
2018-07-24T23:37:01.940Z,2.60
2018-07-24T23:39:33.493Z,2.52
2018-07-24T23:42:02.280Z,3.67
2018-07-24T23:44:30.850Z,2.92
2018-07-24T23:47:04.997Z,2.50
2018-07-24T23:49:36.393Z,2.50
2018-07-24T23:52:05.186Z,3.33
2018-07-24T23:54:37.088Z,2.35
2018-07-24T23:57:06.784Z,3.65
